Time;durP1;ratioP1;P1;durP2;ratioP2;P2;SDS_P1;SDS_P2;PMS_P1;PMS_P2;Temp;Humidity;BMP_temperature;BMP_pressure;BME280_temperature;BME280_humidity;BME280_pressure;Samples;Min_cycle;Max_cycle;Signal;HPM_P1;HPM_P2
2023/10/16 00:02:12;;;;;;;2.35;0.65;;;;;;;4.46;69.15;98281.56;10393170;28;20049;-72
2023/10/16 00:07:33;;;;;;;2.05;0.60;;;;;;;4.45;69.43;98278.06;10393707;28;20041;-73
2023/10/16 00:12:56;;;;;;;1.25;0.40;;;;;;;4.43;69.56;98277.84;10393174;28;20095;-72
2023/10/16 00:18:18;;;;;;;2.33;0.60;;;;;;;4.32;69.13;98284.41;10421173;28;20062;-73
2023/10/16 00:23:39;;;;;;;2.28;0.68;;;;;;;4.21;68.70;98279.13;10365692;28;20076;-72
2023/10/16 00:34:40;;;;;;;1.70;0.52;;;;;;;4.16;69.79;98284.81;10408300;28;20072;-72
2023/10/16 00:40:10;;;;;;;1.08;0.50;;;;;;;4.12;70.33;98282.38;10405728;28;20047;-72
2023/10/16 00:45:45;;;;;;;1.38;0.47;;;;;;;4.13;69.70;98267.28;10406764;28;20073;-72
2023/10/16 00:51:09;;;;;;;3.47;0.40;;;;;;;4.06;70.08;98272.75;10405334;28;20372;-72
2023/10/16 00:56:30;;;;;;;;;;;;;;;4.01;71.12;98272.31;10392287;28;20057;-73
2023/10/16 01:07:31;;;;;;;3.20;0.60;;;;;;;3.96;70.70;98264.19;10404503;28;20096;-72
2023/10/16 01:12:55;;;;;;;1.67;0.60;;;;;;;3.96;70.73;98272.47;10391352;28;20049;-72
2023/10/16 01:18:17;;;;;;;1.23;0.50;;;;;;;3.87;71.34;98261.88;10391159;28;20454;-73
2023/10/16 01:23:38;;;;;;;1.98;0.65;;;;;;;3.91;71.06;98276.81;10404427;28;20041;-71
2023/10/16 01:28:59;;;;;;;3.05;0.50;;;;;;;3.86;70.89;98271.41;10404134;28;20061;-72
2023/10/16 01:34:22;;;;;;;2.92;0.60;;;;;;;3.77;71.21;98263.63;10403655;28;20446;-72
2023/10/16 01:39:53;;;;;;;1.80;0.63;;;;;;;3.76;71.17;98273.16;10391021;28;20045;-72
2023/10/16 01:45:15;;;;;;;1.63;0.50;;;;;;;3.74;71.09;98270.94;10402474;28;20460;-73
2023/10/16 01:50:39;;;;;;;2.03;0.50;;;;;;;3.74;71.58;98270.94;10402784;28;20049;-71
2023/10/16 01:56:12;;;;;;;1.10;0.40;;;;;;;3.76;71.39;98286.97;10389463;28;20056;-73
2023/10/16 02:01:33;;;;;;;2.80;0.60;;;;;;;3.77;71.74;98266.38;10404305;28;20077;-72
2023/10/16 02:06:55;;;;;;;1.98;0.50;;;;;;;3.73;71.50;98269.44;10388736;28;20045;-72
2023/10/16 02:12:18;;;;;;;4.63;0.85;;;;;;;3.69;71.22;98260.75;10402391;28;20044;-72
2023/10/16 02:17:42;;;;;;;4.88;0.88;;;;;;;3.70;71.68;98256.72;10375128;28;20436;-73
2023/10/16 02:23:06;;;;;;;2.08;0.70;;;;;;;3.70;72.45;98259.47;10402270;28;20124;-72
2023/10/16 02:28:31;;;;;;;2.95;0.70;;;;;;;3.64;72.15;98245.06;10402416;28;20046;-73
2023/10/16 02:33:56;;;;;;;3.85;0.85;;;;;;;3.59;72.28;98252.19;10389081;28;20042;-72
2023/10/16 02:39:35;;;;;;;1.83;0.63;;;;;;;3.60;72.10;98248.16;10402122;28;20045;-72
2023/10/16 02:44:56;;;;;;;1.38;0.60;;;;;;;3.54;71.99;98249.53;10392190;28;20303;-72
2023/10/16 02:50:18;;;;;;;2.05;0.60;;;;;;;3.47;71.79;98242.66;10387727;28;20124;-72
2023/10/16 02:55:44;;;;;;;1.60;0.50;;;;;;;3.46;71.82;98252.22;10387298;28;20069;-72
2023/10/16 03:01:06;;;;;;;1.85;0.60;;;;;;;3.43;72.28;98247.75;10387367;28;20486;-71
2023/10/16 03:06:27;;;;;;;2.13;0.60;;;;;;;3.39;72.57;98258.41;10387454;28;20072;-72
2023/10/16 03:11:48;;;;;;;1.75;0.63;;;;;;;3.36;72.80;98256.69;10400919;28;20067;-72
2023/10/16 03:17:10;;;;;;;3.03;1.17;;;;;;;3.37;72.67;98260.94;10387488;28;20049;-72
2023/10/16 03:22:32;;;;;;;1.20;0.50;;;;;;;3.34;73.33;98267.53;10386764;28;20488;-72
2023/10/16 03:27:55;;;;;;;0.77;0.40;;;;;;;3.31;72.66;98260.31;10386930;28;20041;-72
2023/10/16 03:33:16;;;;;;;2.33;0.80;;;;;;;3.30;73.26;98258.84;10400726;28;20041;-72
2023/10/16 03:38:40;;;;;;;2.80;0.70;;;;;;;3.28;73.62;98253.84;10400071;28;20042;-72
2023/10/16 03:44:14;;;;;;;4.87;0.40;;;;;;;3.25;73.82;98262.44;10373839;28;20038;-72
2023/10/16 03:49:36;;;;;;;1.83;0.50;;;;;;;3.25;73.98;98263.19;10414798;28;20041;-72
2023/10/16 03:55:12;;;;;;;1.33;0.50;;;;;;;3.23;73.08;98265.75;10400453;28;20042;-73
2023/10/16 04:00:52;;;;;;;2.90;0.65;;;;;;;3.14;73.87;98255.88;10388244;28;20334;-72
2023/10/16 04:06:19;;;;;;;2.00;0.80;;;;;;;3.16;74.47;98266.38;10392646;28;20099;-72
2023/10/16 04:11:47;;;;;;;2.30;0.75;;;;;;;3.14;73.84;98258.63;10382067;28;20518;-72
2023/10/16 04:17:11;;;;;;;1.98;0.65;;;;;;;3.13;73.68;98254.41;10409836;28;20045;-71
2023/10/16 04:22:44;;;;;;;3.20;0.83;;;;;;;3.11;74.41;98259.72;10437793;28;20061;-73
2023/10/16 04:28:18;;;;;;;2.97;0.77;;;;;;;3.11;74.05;98262.47;10397574;28;20509;-72
2023/10/16 04:33:48;;;;;;;2.47;0.70;;;;;;;3.06;74.34;98255.03;10421718;28;20042;-72
2023/10/16 04:40:28;;;;;;;2.17;1.00;;;;;;;3.00;74.11;98254.41;10407487;28;20095;-72
2023/10/16 04:45:00;;;;;;;2.50;0.90;;;;;;;2.99;74.84;98254.94;10398099;28;20041;-72
2023/10/16 04:56:29;;;;;;;2.37;0.70;;;;;;;2.97;74.55;98251.97;10400128;28;20045;-72
2023/10/16 05:02:06;;;;;;;5.20;0.93;;;;;;;2.87;74.34;98249.63;10419884;28;20061;-72
2023/10/16 05:07:46;;;;;;;3.13;1.08;;;;;;;2.82;75.00;98260.78;10393642;28;20038;-72
2023/10/16 05:19:02;;;;;;;2.75;0.80;;;;;;;2.92;75.13;98255.59;10418438;28;20038;-72
2023/10/16 06:15:22;;;;;;;2.05;1.08;;;;;;;21.37;50.39;98296.53;10393566;28;20049;-71
2023/10/16 06:20:43;;;;;;;2.85;0.80;;;;;;;24.00;45.06;98301.25;10401842;28;20037;-70
2023/10/16 06:26:07;;;;;;;3.97;0.82;;;;;;;26.38;39.41;98307.91;10416092;28;20061;-70
2023/10/16 06:31:35;;;;;;;2.17;0.80;;;;;;;27.88;33.14;98308.81;10388159;28;20403;-71
2023/10/16 06:36:56;;;;;;;2.58;0.47;;;;;;;29.42;28.96;98305.28;10401161;28;20454;-70
2023/10/16 06:42:19;;;;;;;2.35;0.57;;;;;;;31.07;23.71;98305.75;10387114;28;20041;-73
2023/10/16 06:47:47;;;;;;;2.53;0.60;;;;;;;32.63;21.44;98309.56;10374555;28;20095;-73
2023/10/16 06:53:09;;;;;;;2.92;0.45;;;;;;;33.95;18.62;98306.31;10388989;28;20048;-73
2023/10/16 06:58:31;;;;;;;1.65;0.50;;;;;;;35.10;16.68;98311.34;10400861;28;20046;-73
2023/10/16 07:03:55;;;;;;;2.35;1.10;;;;;;;36.13;15.18;98306.03;10401249;28;20050;-73
2023/10/16 07:09:19;;;;;;;2.78;0.75;;;;;;;36.79;13.49;98312.97;10401270;28;20049;-73
2023/10/16 07:14:40;;;;;;;2.45;0.63;;;;;;;37.21;13.02;98320.47;10400309;28;20052;-73
2023/10/16 07:20:01;;;;;;;3.13;0.65;;;;;;;38.51;12.07;98321.34;10414894;28;20045;-73
2023/10/16 07:25:25;;;;;;;1.95;0.60;;;;;;;39.37;11.10;98333.44;10400081;28;20038;-72
2023/10/16 07:30:48;;;;;;;1.33;0.50;;;;;;;39.36;10.10;98329.13;10400628;28;20501;-73
2023/10/16 07:36:11;;;;;;;2.65;0.50;;;;;;;39.89;10.17;98324.09;10386524;28;20115;-72
2023/10/16 07:41:33;;;;;;;1.92;0.50;;;;;;;41.18;9.51;98340.38;10401783;28;20394;-73
2023/10/16 07:46:54;;;;;;;1.77;0.60;;;;;;;41.02;8.72;98323.59;10407583;28;20067;-73
2023/10/16 07:52:15;;;;;;;1.15;0.50;;;;;;;41.19;9.17;98329.38;10407670;28;20037;-74
2023/10/16 07:57:36;;;;;;;2.08;0.57;;;;;;;42.37;8.00;98317.75;10421707;28;20042;-74
2023/10/16 08:03:04;;;;;;;1.60;0.55;;;;;;;42.91;7.54;98318.59;10406925;28;20057;-74
2023/10/16 08:08:35;;;;;;;1.52;0.40;;;;;;;42.97;7.39;98318.28;10407023;28;20432;-74
2023/10/16 08:13:57;;;;;;;2.33;0.50;;;;;;;43.32;7.05;98314.13;10421340;28;20041;-74
2023/10/16 08:19:24;;;;;;;2.80;0.40;;;;;;;43.91;6.86;98302.66;10379533;28;20048;-74
2023/10/16 08:24:59;;;;;;;1.50;0.50;;;;;;;43.30;6.75;98300.25;10393936;28;20049;-74
2023/10/16 08:36:00;;;;;;;2.03;0.40;;;;;;;44.37;6.58;98306.59;10408534;28;20406;-74
2023/10/16 08:41:29;;;;;;;3.47;0.70;;;;;;;43.75;6.64;98312.44;10420272;28;20042;-75
2023/10/16 08:52:21;;;;;;;2.95;0.70;;;;;;;41.22;7.07;98327.78;10405979;28;20395;-75
2023/10/16 08:57:44;;;;;;;2.60;0.70;;;;;;;32.31;10.72;98330.84;10391402;28;20049;-74
2023/10/16 09:03:06;;;;;;;4.40;0.75;;;;;;;30.73;13.15;98318.88;10391228;28;20125;-74
2023/10/16 09:08:28;;;;;;;3.40;0.60;;;;;;;38.02;10.38;98325.19;10404337;28;20041;-73
2023/10/16 09:13:51;;;;;;;2.83;0.60;;;;;;;37.17;10.64;98317.69;10391031;28;20391;-74
2023/10/16 09:19:14;;;;;;;2.85;0.50;;;;;;;39.41;8.85;98321.63;10404433;28;20041;-74
2023/10/16 09:24:36;;;;;;;1.80;0.60;;;;;;;38.40;8.77;98313.72;10376696;28;20100;-74
2023/10/16 09:30:00;;;;;;;2.10;0.40;;;;;;;41.30;8.45;98298.13;10390563;28;20052;-75
2023/10/16 09:35:30;;;;;;;4.30;0.47;;;;;;;43.66;7.38;98309.25;10389984;28;20048;-74
2023/10/16 09:40:58;;;;;;;4.57;0.50;;;;;;;45.78;6.60;98310.22;10392221;28;20047;-74
2023/10/16 09:46:43;;;;;;;1.88;0.50;;;;;;;43.55;6.53;98304.78;10404255;28;20042;-75
2023/10/16 09:52:06;;;;;;;2.30;0.45;;;;;;;42.55;6.90;98308.00;10405984;28;20123;-74
2023/10/16 09:57:30;;;;;;;2.78;0.50;;;;;;;40.26;7.20;98302.09;10376387;28;20411;-74
2023/10/16 10:02:52;;;;;;;1.45;0.40;;;;;;;33.08;10.16;98309.03;10389687;28;20049;-74
2023/10/16 10:08:16;;;;;;;1.70;0.40;;;;;;;31.03;12.25;98294.97;10388357;28;20049;-73
2023/10/16 10:13:43;;;;;;;2.10;0.40;;;;;;;37.67;9.96;98293.59;10388698;28;20391;-74
2023/10/16 10:19:04;;;;;;;3.72;0.70;;;;;;;39.14;8.43;98297.88;10402713;28;20050;-74
2023/10/16 10:24:26;;;;;;;3.15;0.40;;;;;;;31.87;9.82;98300.22;10401856;28;20038;-74
2023/10/16 10:29:49;;;;;;;1.92;0.40;;;;;;;32.96;12.24;98295.44;10401436;28;20069;-74
2023/10/16 10:35:22;;;;;;;2.58;0.35;;;;;;;39.88;9.01;98287.59;10401772;28;20436;-74
2023/10/16 10:41:08;;;;;;;3.03;0.68;;;;;;;41.64;7.41;98289.88;10401597;28;20560;-74
2023/10/16 10:46:34;;;;;;;2.67;0.50;;;;;;;40.53;6.68;98281.88;10400550;28;20041;-75
2023/10/16 10:51:55;;;;;;;2.85;0.43;;;;;;;31.66;9.99;98275.84;10401317;28;20064;-74
2023/10/16 10:57:20;;;;;;;2.30;0.43;;;;;;;30.22;13.11;98275.09;10387198;28;20514;-73
2023/10/16 11:03:05;;;;;;;2.45;0.40;;;;;;;36.22;10.66;98270.94;10386861;28;20045;-74
2023/10/16 11:08:29;;;;;;;1.65;0.40;;;;;;;34.98;9.45;98260.13;10414840;28;20407;-74
2023/10/16 11:13:50;;;;;;;3.03;0.52;;;;;;;31.12;10.91;98258.16;10400782;28;20053;-73
2023/10/16 11:19:11;;;;;;;4.43;0.60;;;;;;;27.62;12.18;98252.69;10420680;28;20069;-73
2023/10/16 11:24:32;;;;;;;2.83;0.50;;;;;;;23.56;13.97;98255.28;10408203;28;20487;-69
2023/10/16 11:29:53;;;;;;;4.28;0.80;;;;;;;21.01;16.20;98255.53;10422955;28;20045;-70
2023/10/16 11:35:17;;;;;;;4.07;0.70;;;;;;;19.17;17.69;98259.81;10394397;28;20060;-70
2023/10/16 11:40:42;;;;;;;3.25;0.60;;;;;;;17.28;22.53;98261.75;10394432;28;20053;-69
2023/10/16 11:46:20;;;;;;;3.80;0.45;;;;;;;18.60;24.54;98254.53;10395217;28;20065;-70
2023/10/16 11:51:46;;;;;;;5.28;0.77;;;;;;;18.53;24.43;98252.09;10398569;28;20091;-69
2023/10/16 11:57:13;;;;;;;6.97;0.68;;;;;;;17.73;25.74;98239.25;10407560;28;20041;-69
2023/10/16 12:02:38;;;;;;;3.60;0.70;;;;;;;18.91;25.63;98233.25;10395212;28;20066;-70
2023/10/16 12:07:59;;;;;;;2.05;0.50;;;;;;;19.08;25.30;98231.84;10407420;28;20042;-70
2023/10/16 12:13:20;;;;;;;2.58;0.60;;;;;;;19.78;24.49;98226.88;10421453;28;20042;-69
2023/10/16 12:18:41;;;;;;;3.33;0.80;;;;;;;19.38;25.19;98223.88;10421231;28;20556;-70
2023/10/16 12:24:04;;;;;;;3.28;0.77;;;;;;;17.89;25.50;98214.59;10406151;28;20468;-69
2023/10/16 12:29:26;;;;;;;4.53;0.52;;;;;;;16.93;26.95;98226.19;10405726;28;20037;-70
2023/10/16 12:34:49;;;;;;;4.90;0.77;;;;;;;16.86;27.08;98222.31;10392327;28;20475;-70
2023/10/16 12:40:24;;;;;;;3.75;0.68;;;;;;;17.91;26.35;98203.41;10405995;28;20072;-70
2023/10/16 12:45:45;;;;;;;3.33;0.60;;;;;;;17.18;26.96;98199.94;10420184;28;20037;-72
2023/10/16 12:51:10;;;;;;;2.97;0.70;;;;;;;17.19;27.60;98198.56;10391506;28;20041;-71
2023/10/16 12:56:32;;;;;;;3.80;0.60;;;;;;;17.78;27.52;98197.84;10405837;28;20069;-70
2023/10/16 13:01:53;;;;;;;2.75;0.80;;;;;;;18.76;27.03;98188.78;10390767;28;20053;-70
2023/10/16 13:07:14;;;;;;;3.78;0.80;;;;;;;18.91;26.33;98185.16;10377216;28;20069;-71
2023/10/16 13:12:56;;;;;;;4.55;1.25;;;;;;;18.50;26.21;98186.25;10407282;28;20476;-71
2023/10/16 13:18:28;;;;;;;2.70;0.53;;;;;;;18.45;26.63;98186.72;10391113;28;20099;-71
2023/10/16 13:23:51;;;;;;;2.00;0.50;;;;;;;18.50;26.20;98189.06;10390265;28;20056;-70
2023/10/16 13:29:13;;;;;;;2.25;0.60;;;;;;;18.18;26.31;98185.56;10390764;28;20044;-70
2023/10/16 13:34:36;;;;;;;2.30;0.60;;;;;;;17.80;26.36;98178.16;10376246;28;20048;-70
2023/10/16 13:39:57;;;;;;;2.57;0.60;;;;;;;17.55;26.63;98179.09;10402284;28;20088;-72
2023/10/16 13:45:18;;;;;;;2.75;0.50;;;;;;;17.66;26.60;98178.19;10403017;28;20681;-70
2023/10/16 13:50:40;;;;;;;3.15;0.40;;;;;;;17.56;26.89;98174.91;10417777;28;20041;-69
2023/10/16 13:56:05;;;;;;;3.47;0.60;;;;;;;17.32;27.19;98169.56;10402727;28;20443;-71
2023/10/16 14:01:26;;;;;;;4.85;0.47;;;;;;;16.37;27.97;98178.91;10389644;28;20068;-70
2023/10/16 14:06:56;;;;;;;2.58;0.38;;;;;;;15.69;28.73;98177.44;10388381;28;20052;-71
2023/10/16 14:12:25;;;;;;;2.47;0.40;;;;;;;15.31;29.37;98192.88;10390878;28;20044;-71
2023/10/16 14:17:57;;;;;;;2.22;0.40;;;;;;;14.63;29.84;98174.28;10404112;28;20072;-70
2023/10/16 14:23:19;;;;;;;3.80;0.52;;;;;;;14.26;30.73;98172.09;10389828;28;20048;-71
2023/10/16 14:28:42;;;;;;;3.80;0.60;;;;;;;13.83;30.94;98179.28;10388334;28;20044;-71
2023/10/16 14:34:05;;;;;;;2.30;0.50;;;;;;;13.36;31.03;98168.69;10402019;28;20096;-70
2023/10/16 14:39:29;;;;;;;3.20;0.85;;;;;;;12.82;31.69;98171.47;10387976;28;20053;-72
2023/10/16 14:44:50;;;;;;;1.65;0.40;;;;;;;12.48;32.65;98172.72;10403501;28;20061;-71
2023/10/16 14:50:14;;;;;;;4.07;0.65;;;;;;;12.47;33.11;98174.06;10401188;28;20041;-71
2023/10/16 14:55:35;;;;;;;3.35;0.43;;;;;;;12.45;33.50;98171.13;10401508;28;20048;-70
2023/10/16 15:00:56;;;;;;;2.75;0.45;;;;;;;12.55;33.15;98169.00;10401168;28;20492;-71
2023/10/16 15:06:18;;;;;;;1.88;0.60;;;;;;;12.41;33.38;98163.19;10400866;28;20045;-71
2023/10/16 15:11:40;;;;;;;3.10;0.75;;;;;;;12.36;34.26;98160.72;10387424;28;20112;-70
2023/10/16 15:17:02;;;;;;;3.88;0.60;;;;;;;12.27;34.30;98167.84;10415387;28;20053;-70
2023/10/16 15:22:23;;;;;;;2.05;0.57;;;;;;;12.23;34.28;98157.09;10373903;28;20484;-70
2023/10/16 15:27:46;;;;;;;3.35;0.50;;;;;;;12.16;34.95;98158.03;10400735;28;20042;-71
2023/10/16 15:33:09;;;;;;;3.20;0.52;;;;;;;12.06;35.08;98159.38;10402222;28;20063;-71
2023/10/16 15:38:30;;;;;;;3.63;0.70;;;;;;;11.92;35.37;98162.69;10404864;28;20045;-74
2023/10/16 15:43:51;;;;;;;5.03;0.80;;;;;;;11.61;36.16;98171.00;10393071;28;20388;-72
2023/10/16 15:49:19;;;;;;;2.65;0.60;;;;;;;11.50;36.69;98168.84;10400673;28;20048;-71
2023/10/16 15:54:42;;;;;;;2.50;0.60;;;;;;;11.27;37.12;98179.75;10400439;28;20053;-70
2023/10/16 16:00:06;;;;;;;1.75;0.50;;;;;;;11.03;37.86;98184.31;10400151;28;20049;-71
2023/10/16 16:05:31;;;;;;;1.88;0.60;;;;;;;10.90;38.04;98185.47;10380879;28;20057;-71
2023/10/16 16:10:55;;;;;;;1.67;0.60;;;;;;;10.77;38.60;98197.09;10380413;28;20116;-71
2023/10/16 16:16:20;;;;;;;1.77;0.60;;;;;;;10.57;40.25;98196.31;10393408;28;20514;-71
2023/10/16 16:21:41;;;;;;;2.50;0.70;;;;;;;10.54;39.72;98200.28;10407372;28;20518;-71
2023/10/16 16:27:02;;;;;;;2.38;0.95;;;;;;;10.58;39.91;98189.41;10406441;28;20076;-70
2023/10/16 16:32:25;;;;;;;3.28;1.30;;;;;;;10.63;40.24;98196.06;10392561;28;20494;-72
2023/10/16 16:37:55;;;;;;;4.95;1.73;;;;;;;10.58;41.03;98198.53;10393087;28;20048;-70
2023/10/16 16:43:18;;;;;;;4.78;1.70;;;;;;;10.60;40.63;98195.88;10393143;28;20535;-71
2023/10/16 16:48:39;;;;;;;5.13;1.60;;;;;;;10.68;40.87;98200.59;10419273;28;20460;-71
2023/10/16 16:54:00;;;;;;;2.22;1.13;;;;;;;10.77;40.58;98206.19;10392007;28;20061;-71
2023/10/16 16:59:24;;;;;;;3.95;1.40;;;;;;;10.77;40.56;98217.38;10377942;28;20084;-71
2023/10/16 17:04:45;;;;;;;4.30;1.37;;;;;;;10.74;40.59;98204.59;10391234;28;20128;-71
2023/10/16 17:10:09;;;;;;;3.88;1.80;;;;;;;10.73;40.66;98213.56;10391981;28;20042;-72
2023/10/16 17:15:33;;;;;;;3.38;1.33;;;;;;;10.68;41.23;98220.16;10393115;28;20046;-73
2023/10/16 17:21:00;;;;;;;5.50;1.52;;;;;;;10.66;41.61;98208.84;10393363;28;20073;-72
2023/10/16 17:26:21;;;;;;;8.65;1.85;;;;;;;10.65;41.27;98219.25;10390897;28;20042;-71
2023/10/16 17:31:42;;;;;;;4.18;2.10;;;;;;;10.59;41.56;98216.75;10390471;28;20042;-72
2023/10/16 17:37:06;;;;;;;5.75;2.08;;;;;;;10.60;41.86;98223.06;10376702;28;20045;-70
2023/10/16 17:42:27;;;;;;;5.53;1.77;;;;;;;10.54;42.48;98217.78;10390542;28;20046;-71
2023/10/16 17:47:50;;;;;;;4.32;2.08;;;;;;;10.55;41.72;98224.09;10418089;28;20042;-72
2023/10/16 17:53:11;;;;;;;5.50;2.20;;;;;;;10.50;42.04;98230.69;10402933;28;20052;-71
2023/10/16 17:58:32;;;;;;;4.22;1.75;;;;;;;10.41;42.15;98223.75;10403216;28;20471;-71
2023/10/16 18:03:53;;;;;;;5.80;2.70;;;;;;;10.34;42.63;98224.63;10402534;28;20053;-70
2023/10/16 18:09:14;;;;;;;8.80;3.22;;;;;;;10.32;42.80;98219.59;10388986;28;20037;-71
2023/10/16 18:14:43;;;;;;;10.23;4.93;;;;;;;10.28;43.28;98224.16;10402664;28;20595;-71
2023/10/16 18:20:08;;;;;;;6.13;3.33;;;;;;;10.24;43.36;98235.00;10391030;28;20045;-71
2023/10/16 18:25:31;;;;;;;9.90;4.00;;;;;;;10.19;43.46;98233.94;10375443;28;20403;-71
2023/10/16 18:30:54;;;;;;;5.65;3.33;;;;;;;9.99;44.20;98230.31;10402468;28;20067;-71
2023/10/16 18:36:15;;;;;;;7.85;2.67;;;;;;;9.66;44.25;98240.25;10401780;28;20079;-71
2023/10/16 18:41:40;;;;;;;3.83;2.05;;;;;;;9.30;43.89;98235.31;10416136;28;20103;-71
2023/10/16 18:47:04;;;;;;;4.50;1.98;;;;;;;8.94;44.84;98244.97;10401610;28;20041;-71
2023/10/16 18:52:25;;;;;;;4.05;1.75;;;;;;;8.68;45.41;98248.38;10388423;28;20038;-71
2023/10/16 18:57:46;;;;;;;6.22;2.70;;;;;;;8.47;45.72;98257.09;10415797;28;20050;-71
2023/10/16 19:03:08;;;;;;;10.05;3.45;;;;;;;8.21;45.69;98263.94;10387296;28;20050;-71
2023/10/16 19:08:31;;;;;;;6.85;3.20;;;;;;;8.04;46.13;98268.13;10401074;28;20048;-71
2023/10/16 19:13:52;;;;;;;6.78;2.50;;;;;;;7.93;46.67;98265.03;10373579;28;20088;-71
2023/10/16 19:19:13;;;;;;;8.10;2.08;;;;;;;7.80;47.34;98260.47;10387484;28;20068;-71
2023/10/16 19:24:36;;;;;;;6.18;1.77;;;;;;;7.63;47.47;98261.13;10400747;28;20046;-71
2023/10/16 19:29:56;;;;;;;4.40;2.30;;;;;;;7.47;48.03;98265.25;10386595;28;20042;-71
2023/10/16 19:35:18;;;;;;;6.00;2.15;;;;;;;7.40;48.43;98268.78;10372973;28;20037;-71
2023/10/16 19:40:38;;;;;;;5.07;2.00;;;;;;;7.41;48.52;98278.59;10422110;28;20072;-71
2023/10/16 19:46:00;;;;;;;5.32;1.90;;;;;;;7.42;48.51;98283.59;10392187;28;20063;-70
2023/10/16 19:51:23;;;;;;;3.95;1.63;;;;;;;7.44;49.19;98283.78;10394647;28;20529;-70
2023/10/16 19:56:44;;;;;;;5.55;1.63;;;;;;;7.41;49.04;98279.34;10407790;28;20049;-71
2023/10/16 20:02:05;;;;;;;28.65;10.45;;;;;;;7.29;48.98;98283.09;10407341;28;20139;-70
2023/10/16 20:07:26;;;;;;;17.40;7.63;;;;;;;7.13;49.59;98276.81;10393927;28;20045;-70
2023/10/16 20:12:52;;;;;;;24.13;9.30;;;;;;;7.08;50.02;98275.75;10421878;28;20160;-71
2023/10/16 20:18:14;;;;;;;12.38;5.60;;;;;;;7.10;50.46;98267.59;10407295;28;20476;-70
2023/10/16 20:23:36;;;;;;;8.00;3.63;;;;;;;7.18;50.37;98273.88;10406539;28;20167;-71
2023/10/16 20:29:01;;;;;;;6.85;3.00;;;;;;;7.26;50.52;98270.34;10379282;28;20065;-70
2023/10/16 20:34:22;;;;;;;4.65;2.70;;;;;;;7.31;50.73;98280.47;10393008;28;20065;-70
2023/10/16 20:39:49;;;;;;;7.53;3.00;;;;;;;7.41;50.98;98273.03;10406147;28;20545;-70
2023/10/16 20:45:13;;;;;;;9.73;3.72;;;;;;;7.18;51.01;98284.22;10420860;28;20423;-71
2023/10/16 20:50:35;;;;;;;11.23;4.22;;;;;;;7.10;51.51;98283.50;10405898;28;20073;-71
2023/10/16 20:55:56;;;;;;;7.78;3.45;;;;;;;7.18;51.53;98282.19;10392592;28;20047;-71
2023/10/16 21:01:17;;;;;;;7.93;3.38;;;;;;;7.09;51.87;98274.44;10392680;28;20042;-71
2023/10/16 21:06:38;;;;;;;6.65;2.70;;;;;;;7.11;52.29;98287.75;10421023;28;20068;-70
2023/10/16 21:12:00;;;;;;;5.30;3.00;;;;;;;7.20;52.49;98280.88;10392015;28;20428;-71
2023/10/16 21:17:21;;;;;;;6.45;3.22;;;;;;;7.24;52.56;98278.47;10405923;28;20073;-70
2023/10/16 21:22:42;;;;;;;5.45;2.83;;;;;;;7.26;52.47;98278.66;10399290;28;20501;-73
2023/10/16 21:28:05;;;;;;;8.13;2.70;;;;;;;7.25;52.66;98272.38;10417491;28;20045;-72
2023/10/16 21:33:26;;;;;;;6.82;3.10;;;;;;;7.26;52.71;98267.56;10405421;28;20037;-71
2023/10/16 21:38:47;;;;;;;6.65;3.55;;;;;;;7.28;53.09;98265.69;10376641;28;20045;-71
2023/10/16 21:44:08;;;;;;;6.60;3.35;;;;;;;7.22;53.12;98264.41;10403655;28;20512;-71
2023/10/16 21:49:29;;;;;;;11.27;4.22;;;;;;;7.27;53.57;98269.03;10390021;28;20458;-71
2023/10/16 21:54:50;;;;;;;7.35;3.75;;;;;;;7.29;53.43;98271.97;10389404;28;20415;-71
2023/10/16 22:00:12;;;;;;;6.28;3.70;;;;;;;7.31;53.47;98270.13;10403881;28;20096;-71
2023/10/16 22:05:34;;;;;;;9.02;3.50;;;;;;;7.23;53.44;98269.41;10390940;28;20053;-70
2023/10/16 22:10:59;;;;;;;6.65;3.28;;;;;;;7.22;54.35;98261.63;10388742;28;20048;-71
2023/10/16 22:16:20;;;;;;;8.30;4.07;;;;;;;7.26;53.90;98270.34;10389873;28;20395;-71
2023/10/16 22:21:41;;;;;;;14.57;8.50;;;;;;;7.22;54.14;98272.72;10375090;28;20053;-71
2023/10/16 22:27:02;;;;;;;8.40;4.47;;;;;;;7.18;54.42;98275.91;10388544;28;20069;-71
2023/10/16 22:32:23;;;;;;;8.60;4.10;;;;;;;7.11;54.39;98273.88;10416719;28;20049;-71
2023/10/16 22:37:44;;;;;;;10.27;4.00;;;;;;;7.08;54.76;98270.19;10388076;28;20455;-72
2023/10/16 22:43:06;;;;;;;8.57;3.42;;;;;;;7.09;54.64;98260.56;10416495;28;20442;-71
2023/10/16 22:48:28;;;;;;;6.68;3.90;;;;;;;7.01;54.87;98265.38;10401488;28;20052;-71
2023/10/16 22:53:49;;;;;;;7.22;3.78;;;;;;;6.88;55.04;98258.00;10401579;28;20037;-71
2023/10/16 22:59:11;;;;;;;9.23;4.35;;;;;;;6.87;55.09;98261.34;10401201;28;20045;-70
2023/10/16 23:04:33;;;;;;;6.50;3.38;;;;;;;6.69;54.73;98257.66;10387012;28;20077;-71
2023/10/16 23:09:55;;;;;;;7.10;3.78;;;;;;;6.52;54.99;98258.22;10374249;28;20448;-71
2023/10/16 23:20:49;;;;;;;7.93;3.40;;;;;;;6.34;55.91;98264.88;10400571;28;20408;-70
2023/10/16 23:26:11;;;;;;;6.82;3.33;;;;;;;6.34;56.14;98259.34;10414221;28;20045;-71
2023/10/16 23:31:33;;;;;;;7.18;3.20;;;;;;;6.38;56.04;98259.72;10413884;28;20071;-71
2023/10/16 23:36:57;;;;;;;7.30;3.65;;;;;;;6.22;56.21;98258.97;10400148;28;20052;-71
2023/10/16 23:42:18;;;;;;;7.13;3.50;;;;;;;6.10;56.29;98254.34;10414617;28;20464;-71
2023/10/16 23:47:44;;;;;;;4.90;2.97;;;;;;;6.04;56.20;98257.28;10413934;28;20041;-71
2023/10/16 23:53:11;;;;;;;6.45;2.95;;;;;;;5.93;56.61;98255.59;10401553;28;20403;-71
2023/10/16 23:58:32;;;;;;;7.20;3.17;;;;;;;5.88;56.60;98252.94;10401764;28;20414;-71
